Time;durP1;ratioP1;P1;durP2;ratioP2;P2;SDS_P1;SDS_P2;PMS_P1;PMS_P2;Temp;Humidity;BMP_temperature;BMP_pressure;BME280_temperature;BME280_humidity;BME280_pressure;Samples;Min_cycle;Max_cycle;Signal;HPM_P1;HPM_P2
2023/06/14 00:02:26;;;;;;;5.70;4.87;;;;;;;22.87;81.00;99110.16;5037693;28;20255;-64
2023/06/14 00:04:52;;;;;;;6.07;5.77;;;;;;;22.82;81.29;99104.78;5037970;28;20264;-64
2023/06/14 00:07:19;;;;;;;5.53;5.23;;;;;;;22.74;81.62;99105.41;5037834;28;20195;-64
2023/06/14 00:09:47;;;;;;;5.60;5.20;;;;;;;22.66;81.97;99108.72;5037849;28;20716;-64
2023/06/14 00:12:14;;;;;;;5.17;4.87;;;;;;;22.52;82.40;99096.94;5037962;28;20190;-65
2023/06/14 00:14:40;;;;;;;5.90;5.40;;;;;;;22.48;82.93;99106.69;5034813;28;20198;-64
2023/06/14 00:17:08;;;;;;;6.07;5.53;;;;;;;22.46;83.32;99102.63;5034492;28;20193;-64
2023/06/14 00:19:36;;;;;;;6.17;5.57;;;;;;;22.42;83.73;99102.38;5034635;28;20257;-64
2023/06/14 00:22:03;;;;;;;7.27;5.30;;;;;;;22.42;83.61;99101.59;5034580;28;20300;-64
2023/06/14 00:24:29;;;;;;;5.83;5.43;;;;;;;22.39;83.77;99105.66;5034192;28;20198;-64
2023/06/14 00:26:57;;;;;;;5.63;5.23;;;;;;;22.32;84.30;99097.03;5034295;28;20680;-64
2023/06/14 00:29:24;;;;;;;6.27;5.80;;;;;;;22.16;85.31;99100.13;5034574;28;20259;-65
2023/06/14 00:31:51;;;;;;;6.63;6.03;;;;;;;22.19;85.36;99094.97;5052961;28;20318;-65
2023/06/14 00:34:17;;;;;;;5.83;5.43;;;;;;;22.19;85.48;99097.69;5054105;28;20250;-64
2023/06/14 00:36:44;;;;;;;10.10;5.60;;;;;;;22.23;85.52;99097.91;5054165;28;20664;-65
2023/06/14 00:39:11;;;;;;;6.20;5.70;;;;;;;22.24;85.58;99099.53;5053804;28;20716;-64
2023/06/14 00:41:38;;;;;;;5.53;5.00;;;;;;;22.24;85.60;99094.94;5053236;28;20189;-63
2023/06/14 00:44:07;;;;;;;6.70;6.13;;;;;;;22.20;85.84;99088.47;5053871;28;20219;-64
2023/06/14 00:46:33;;;;;;;6.90;6.50;;;;;;;22.19;86.38;99084.16;5052428;28;20189;-64
2023/06/14 00:49:02;;;;;;;6.03;5.63;;;;;;;22.22;86.26;99086.28;5053838;28;20266;-64
2023/06/14 00:51:29;;;;;;;5.93;5.53;;;;;;;22.24;86.02;99084.09;5038791;28;20198;-63
2023/06/14 00:53:56;;;;;;;6.03;5.63;;;;;;;22.25;86.12;99083.00;5033860;28;20581;-63
2023/06/14 00:56:23;;;;;;;6.30;6.00;;;;;;;22.24;86.46;99077.88;5034220;28;20243;-64
2023/06/14 00:58:50;;;;;;;5.40;5.10;;;;;;;22.12;87.28;99075.53;5033980;28;20267;-64
2023/06/14 01:01:19;;;;;;;5.97;5.40;;;;;;;22.12;87.85;99075.53;5033668;28;20197;-64
2023/06/14 01:03:46;;;;;;;5.80;5.50;;;;;;;22.12;87.62;99080.13;5033585;28;20201;-65
2023/06/14 01:06:26;;;;;;;5.83;5.53;;;;;;;22.11;87.80;99083.91;5033499;28;20197;-64
2023/06/14 01:09:02;;;;;;;5.73;5.33;;;;;;;22.06;88.27;99082.06;5033360;28;20719;-64
2023/06/14 01:11:33;;;;;;;6.60;6.10;;;;;;;22.01;88.58;99078.59;5034125;28;20224;-64
2023/06/14 01:14:02;;;;;;;6.13;5.83;;;;;;;22.03;88.73;99077.22;5033880;28;20198;-64
2023/06/14 01:16:32;;;;;;;7.10;6.47;;;;;;;22.07;88.75;99072.03;5033847;28;20189;-64
2023/06/14 01:18:59;;;;;;;6.07;5.67;;;;;;;21.97;88.94;99072.91;5033179;28;20212;-64
2023/06/14 01:21:28;;;;;;;6.23;5.83;;;;;;;21.87;89.63;99072.16;5033260;28;20193;-64
2023/06/14 01:23:56;;;;;;;7.10;6.70;;;;;;;21.94;89.91;99076.19;5033718;28;20189;-64
2023/06/14 01:26:23;;;;;;;6.53;6.13;;;;;;;21.99;90.21;99076.16;5033134;28;20193;-64
2023/06/14 01:28:52;;;;;;;7.13;6.50;;;;;;;22.05;89.56;99075.03;5033159;28;20752;-63
2023/06/14 01:31:22;;;;;;;5.87;5.33;;;;;;;22.03;89.37;99077.22;5033145;28;20196;-64
2023/06/14 01:33:50;;;;;;;5.93;5.43;;;;;;;22.15;89.03;99076.84;5033404;28;20193;-63
2023/06/14 01:36:18;;;;;;;6.53;6.03;;;;;;;22.15;89.05;99079.56;5033121;28;20568;-64
2023/06/14 01:38:46;;;;;;;6.27;5.83;;;;;;;22.16;88.99;99075.75;5032886;28;20604;-63
2023/06/14 01:41:15;;;;;;;5.90;5.40;;;;;;;22.21;88.79;99078.47;5033345;28;20288;-64
2023/06/14 01:43:43;;;;;;;5.97;5.57;;;;;;;22.29;88.33;99075.94;5032923;28;20197;-64
2023/06/14 01:46:11;;;;;;;5.90;5.50;;;;;;;22.29;88.28;99075.94;5032925;28;20190;-64
2023/06/14 01:48:38;;;;;;;5.97;5.20;;;;;;;22.43;88.22;99076.13;5032407;28;20205;-64
2023/06/14 01:51:05;;;;;;;5.67;5.27;;;;;;;22.47;88.18;99069.91;5032584;28;20578;-64
2023/06/14 01:53:31;;;;;;;5.70;5.40;;;;;;;22.63;87.74;99079.50;5032728;28;20197;-64
2023/06/14 01:55:58;;;;;;;5.57;5.17;;;;;;;22.79;86.85;99077.47;5032976;28;20628;-65
2023/06/14 01:58:26;;;;;;;6.20;5.50;;;;;;;22.89;86.45;99075.47;5032811;28;20229;-64
2023/06/14 02:00:55;;;;;;;6.33;5.70;;;;;;;23.00;85.12;99074.28;5032681;28;20199;-64
2023/06/14 02:03:23;;;;;;;6.13;5.73;;;;;;;23.03;84.24;99081.81;5032927;28;20256;-64
2023/06/14 02:05:49;;;;;;;6.20;5.80;;;;;;;22.98;85.09;99078.34;5039369;28;20610;-65
2023/06/14 02:08:16;;;;;;;5.90;5.50;;;;;;;22.98;84.66;99073.75;5052298;28;20193;-64
2023/06/14 02:10:43;;;;;;;5.70;5.37;;;;;;;22.96;84.72;99086.78;5052661;28;20257;-64
2023/06/14 02:13:10;;;;;;;5.20;4.80;;;;;;;22.95;85.57;99079.72;5052722;28;20190;-63
2023/06/14 02:15:38;;;;;;;6.13;5.73;;;;;;;22.94;84.54;99083.53;5051558;28;20255;-63
2023/06/14 02:18:05;;;;;;;6.77;6.27;;;;;;;22.92;84.76;99080.34;5052359;28;20333;-64
2023/06/14 02:20:32;;;;;;;5.07;4.73;;;;;;;22.95;85.83;99087.88;5052617;28;20263;-63
2023/06/14 02:22:58;;;;;;;6.10;5.70;;;;;;;23.05;85.00;99076.94;5052195;28;20625;-65
2023/06/14 02:25:27;;;;;;;6.50;6.10;;;;;;;23.13;84.89;99078.22;5050982;28;20195;-64
2023/06/14 02:27:54;;;;;;;5.43;5.03;;;;;;;23.19;84.38;99083.28;5052143;28;20189;-64
2023/06/14 02:30:21;;;;;;;6.40;5.43;;;;;;;23.24;84.01;99088.66;5052341;28;20226;-64
2023/06/14 02:32:50;;;;;;;5.83;5.33;;;;;;;23.32;83.98;99092.69;5052395;28;20571;-64
2023/06/14 02:35:17;;;;;;;5.50;5.20;;;;;;;23.35;83.25;99090.19;5042765;28;20708;-65
2023/06/14 02:37:44;;;;;;;6.57;5.97;;;;;;;23.38;83.31;99078.78;5031615;28;20220;-64
2023/06/14 02:40:11;;;;;;;8.73;6.70;;;;;;;23.41;82.64;99094.47;5031657;28;20284;-64
2023/06/14 02:42:38;;;;;;;7.63;6.10;;;;;;;23.17;82.28;99066.53;5032064;28;20253;-64
2023/06/14 02:45:06;;;;;;;6.33;5.80;;;;;;;23.20;82.86;99092.25;5031735;28;20194;-64
2023/06/14 02:47:32;;;;;;;6.73;6.03;;;;;;;23.03;83.91;99086.44;5031747;28;20667;-64
2023/06/14 02:50:00;;;;;;;6.77;5.47;;;;;;;22.92;85.10;99088.47;5031851;28;20225;-64
2023/06/14 02:52:27;;;;;;;7.40;5.63;;;;;;;22.90;85.12;99092.53;5032366;28;20194;-64
2023/06/14 02:54:54;;;;;;;6.23;5.67;;;;;;;22.89;85.71;99094.44;5032170;28;20195;-64
2023/06/14 02:57:21;;;;;;;7.87;5.93;;;;;;;22.92;85.80;99091.16;5031780;28;20237;-64
2023/06/14 02:59:47;;;;;;;6.50;5.77;;;;;;;22.96;84.95;99097.63;5031646;28;20767;-64
2023/06/14 03:02:14;;;;;;;6.70;6.10;;;;;;;22.99;85.45;99096.25;5031668;28;20685;-64
2023/06/14 03:04:43;;;;;;;7.40;6.00;;;;;;;23.12;84.10;99106.41;5034981;28;20187;-64
2023/06/14 03:07:12;;;;;;;7.13;6.53;;;;;;;23.20;83.69;99103.09;5031747;28;20196;-64
2023/06/14 03:09:40;;;;;;;6.37;5.97;;;;;;;23.23;83.34;99107.97;5032058;28;20285;-64
2023/06/14 03:12:09;;;;;;;10.50;5.90;;;;;;;23.23;82.94;99110.66;5031691;28;20245;-64
2023/06/14 03:14:36;;;;;;;8.30;4.73;;;;;;;23.17;83.77;99120.72;5031805;28;20189;-64
2023/06/14 03:17:04;;;;;;;7.40;5.40;;;;;;;23.22;83.71;99117.97;5031943;28;20200;-64
2023/06/14 03:19:31;;;;;;;5.40;4.77;;;;;;;23.24;82.71;99123.13;5031457;28;20226;-64
2023/06/14 03:21:58;;;;;;;6.00;5.40;;;;;;;23.18;82.28;99122.31;5031554;28;20683;-65
2023/06/14 03:24:27;;;;;;;6.30;5.80;;;;;;;23.08;83.44;99121.63;5031871;28;20202;-64
2023/06/14 03:26:53;;;;;;;5.83;5.23;;;;;;;22.99;83.30;99124.13;5031513;28;20286;-64
2023/06/14 03:29:20;;;;;;;8.97;6.87;;;;;;;23.01;82.44;99121.97;5031546;28;20553;-64
2023/06/14 03:31:58;;;;;;;5.60;5.30;;;;;;;23.04;83.24;99120.56;5031639;28;20253;-64
2023/06/14 03:34:25;;;;;;;6.47;5.90;;;;;;;23.03;81.93;99136.00;5012167;28;20226;-65
2023/06/14 03:36:51;;;;;;;6.13;5.63;;;;;;;22.94;83.21;99131.50;5011675;28;20242;-64
2023/06/14 03:39:18;;;;;;;5.70;5.30;;;;;;;22.86;83.36;99132.09;5011693;28;20235;-64
2023/06/14 03:41:47;;;;;;;7.63;5.77;;;;;;;22.86;83.55;99135.63;5015573;28;20201;-64
2023/06/14 03:44:16;;;;;;;5.57;5.07;;;;;;;22.88;84.86;99133.47;5034190;28;20212;-63
2023/06/14 03:46:43;;;;;;;7.70;5.70;;;;;;;22.91;83.11;99142.91;5051206;28;20216;-63
2023/06/14 03:49:10;;;;;;;6.90;5.00;;;;;;;22.91;83.11;99143.72;5054561;28;20198;-63
2023/06/14 03:51:37;;;;;;;20.87;6.20;;;;;;;22.92;83.87;99150.75;5054366;28;20198;-64
2023/06/14 03:54:04;;;;;;;11.73;6.17;;;;;;;22.89;83.03;99159.44;5053708;28;20225;-63
2023/06/14 03:56:31;;;;;;;12.27;5.97;;;;;;;22.67;83.90;99163.69;5055424;28;20558;-63
2023/06/14 03:58:59;;;;;;;10.47;6.53;;;;;;;22.43;84.85;99155.44;5055187;28;20275;-63
2023/06/14 04:01:27;;;;;;;5.57;5.00;;;;;;;22.26;87.35;99157.69;5055030;28;20197;-63
2023/06/14 04:03:53;;;;;;;6.53;5.67;;;;;;;22.40;88.09;99153.28;5053988;28;20193;-63
2023/06/14 04:06:20;;;;;;;15.07;6.77;;;;;;;22.60;85.83;99155.88;5036412;28;20232;-64
2023/06/14 04:08:49;;;;;;;6.93;6.37;;;;;;;22.72;86.00;99160.94;5034850;28;20667;-63
2023/06/14 04:11:16;;;;;;;8.17;7.43;;;;;;;22.70;85.21;99157.72;5034671;28;20197;-63
2023/06/14 04:13:42;;;;;;;57.13;9.67;;;;;;;22.51;84.84;99160.28;5051697;28;20258;-64
2023/06/14 04:16:10;;;;;;;8.17;7.40;;;;;;;22.37;85.67;99163.88;5054874;28;20194;-65
2023/06/14 04:18:37;;;;;;;9.30;7.40;;;;;;;22.21;86.62;99165.03;5054825;28;20259;-64
2023/06/14 04:21:04;;;;;;;9.33;7.37;;;;;;;22.09;87.45;99165.34;5054710;28;20254;-65
2023/06/14 04:23:32;;;;;;;15.73;8.37;;;;;;;21.96;88.65;99159.75;5053716;28;20212;-64
2023/06/14 04:26:02;;;;;;;27.27;9.97;;;;;;;21.84;90.19;99157.34;5054636;28;20279;-65
2023/06/14 04:28:29;;;;;;;11.80;9.30;;;;;;;21.81;91.02;99159.81;5054706;28;20193;-64
2023/06/14 04:30:56;;;;;;;16.40;9.33;;;;;;;21.76;92.43;99163.34;5053755;28;20196;-64
2023/06/14 04:33:25;;;;;;;20.80;9.30;;;;;;;21.86;92.30;99162.50;5054481;28;20250;-64
2023/06/14 04:35:53;;;;;;;13.93;8.80;;;;;;;21.97;90.98;99159.47;5054074;28;20576;-64
2023/06/14 04:38:25;;;;;;;7.10;6.60;;;;;;;21.96;91.59;99160.56;5054138;28;20197;-65
2023/06/14 04:40:52;;;;;;;12.83;6.50;;;;;;;22.24;91.41;99170.69;5047534;28;20233;-64
2023/06/14 04:43:24;;;;;;;7.63;6.93;;;;;;;22.49;88.29;99173.28;5034368;28;20193;-64
2023/06/14 04:45:51;;;;;;;8.53;7.80;;;;;;;22.41;86.96;99176.56;5034615;28;20244;-66
2023/06/14 04:48:19;;;;;;;11.67;6.70;;;;;;;22.39;88.48;99177.91;5034330;28;20202;-65
2023/06/14 04:50:47;;;;;;;17.73;7.67;;;;;;;22.66;85.55;99178.31;5038816;28;20274;-67
2023/06/14 04:53:14;;;;;;;12.40;7.80;;;;;;;22.71;84.53;99181.78;5036263;28;20669;-67
2023/06/14 04:55:44;;;;;;;9.27;6.13;;;;;;;22.89;85.92;99183.00;5033821;28;20194;-67
2023/06/14 04:58:12;;;;;;;9.07;7.10;;;;;;;23.22;81.93;99185.75;5033963;28;20222;-66
2023/06/14 05:00:39;;;;;;;7.03;6.40;;;;;;;23.25;81.41;99182.47;5033113;28;20235;-67
2023/06/14 05:03:06;;;;;;;12.80;7.50;;;;;;;23.21;81.79;99192.25;5034019;28;20284;-65
2023/06/14 05:05:34;;;;;;;16.57;8.80;;;;;;;23.10;82.38;99187.16;5034036;28;20638;-65
2023/06/14 05:08:02;;;;;;;12.80;7.67;;;;;;;23.06;84.19;99191.53;5033626;28;20195;-66
2023/06/14 05:10:29;;;;;;;15.80;7.83;;;;;;;23.15;83.65;99187.13;5033990;28;20758;-67
2023/06/14 05:12:56;;;;;;;9.70;7.67;;;;;;;23.40;83.07;99198.56;5036586;28;20190;-67
2023/06/14 05:15:26;;;;;;;14.43;7.67;;;;;;;23.63;81.74;99192.38;5033341;28;20203;-67
2023/06/14 05:17:55;;;;;;;9.97;7.37;;;;;;;23.95;80.77;99202.63;5033768;28;20190;-67
2023/06/14 05:20:23;;;;;;;11.60;7.23;;;;;;;24.35;78.65;99202.09;5034248;28;20318;-66
2023/06/14 05:22:51;;;;;;;13.37;8.73;;;;;;;24.64;76.63;99208.25;5053116;28;20201;-65
2023/06/14 05:25:20;;;;;;;17.70;10.10;;;;;;;24.76;76.10;99220.28;5053161;28;20223;-65
2023/06/14 05:27:46;;;;;;;19.47;9.97;;;;;;;24.81;75.60;99228.34;5052053;28;20189;-66
2023/06/14 05:30:14;;;;;;;17.47;11.80;;;;;;;24.75;75.88;99215.94;5033472;28;20774;-67
2023/06/14 05:32:41;;;;;;;17.37;13.23;;;;;;;24.68;75.67;99226.38;5049996;28;20200;-68
2023/06/14 05:35:09;;;;;;;21.30;12.03;;;;;;;24.68;76.82;99229.09;5043523;28;20209;-70
2023/06/14 05:37:35;;;;;;;14.10;9.90;;;;;;;24.66;76.28;99225.84;5028799;28;20198;-69
2023/06/14 05:40:04;;;;;;;11.57;10.57;;;;;;;24.77;75.69;99227.34;5027565;28;20650;-69
2023/06/14 05:42:32;;;;;;;14.53;13.23;;;;;;;24.80;74.74;99232.16;5028965;28;20196;-67
2023/06/14 05:44:59;;;;;;;14.73;12.77;;;;;;;24.73;75.24;99239.88;5026114;28;20204;-67
2023/06/14 05:47:25;;;;;;;13.90;12.40;;;;;;;24.81;74.22;99241.94;5027998;28;20192;-66
2023/06/14 05:49:52;;;;;;;12.43;11.37;;;;;;;24.78;74.56;99239.81;5037547;28;20200;-68
2023/06/14 05:52:19;;;;;;;10.90;10.13;;;;;;;24.67;75.11;99238.31;5047815;28;20254;-68
2023/06/14 05:54:46;;;;;;;12.73;11.40;;;;;;;24.70;75.50;99251.34;5032856;28;20673;-68
2023/06/14 05:57:12;;;;;;;11.70;10.57;;;;;;;24.70;75.27;99248.63;5025029;28;20219;-68
2023/06/14 05:59:41;;;;;;;11.77;10.57;;;;;;;24.82;76.03;99251.69;5029097;28;20289;-68
2023/06/14 06:02:07;;;;;;;13.00;11.20;;;;;;;25.08;73.95;99254.03;5028721;28;20580;-68
2023/06/14 06:04:34;;;;;;;13.93;10.67;;;;;;;25.00;75.14;99242.72;5019951;28;20192;-68
2023/06/14 06:07:01;;;;;;;12.60;11.30;;;;;;;24.90;74.49;99252.94;5037179;28;20234;-69
2023/06/14 06:09:28;;;;;;;13.53;11.60;;;;;;;24.76;74.87;99235.78;5029692;28;20199;-68
2023/06/14 06:11:55;;;;;;;11.10;10.10;;;;;;;24.54;76.05;99239.03;5026010;28;20240;-68
2023/06/14 06:14:21;;;;;;;12.50;11.63;;;;;;;24.81;75.89;99241.94;5017532;28;20223;-67
2023/06/14 06:16:50;;;;;;;9.87;9.10;;;;;;;25.18;74.80;99237.56;5030831;28;20189;-68
2023/06/14 06:19:16;;;;;;;12.33;11.13;;;;;;;25.50;72.21;99251.16;5038965;28;20564;-65
2023/06/14 06:21:43;;;;;;;11.50;10.50;;;;;;;25.60;72.01;99253.72;5031235;28;20548;-66
2023/06/14 06:24:10;;;;;;;18.60;12.57;;;;;;;25.58;72.03;99251.31;5031030;28;20243;-66
2023/06/14 06:26:36;;;;;;;9.73;8.87;;;;;;;25.69;72.96;99247.31;5029791;28;20193;-68
2023/06/14 06:29:03;;;;;;;10.30;9.30;;;;;;;26.17;70.91;99256.72;5034140;28;20224;-67
2023/06/14 06:31:30;;;;;;;21.97;11.63;;;;;;;26.28;68.94;99262.75;5040685;28;20195;-69
2023/06/14 06:33:58;;;;;;;11.50;10.60;;;;;;;26.26;68.88;99254.94;5034777;28;20202;-67
2023/06/14 06:36:25;;;;;;;11.83;10.17;;;;;;;26.53;68.39;99265.78;5029853;28;20198;-68
2023/06/14 06:38:52;;;;;;;14.47;11.20;;;;;;;26.95;66.41;99267.34;5032540;28;20189;-67
2023/06/14 06:41:19;;;;;;;12.17;10.23;;;;;;;27.12;66.62;99267.47;5048786;28;20216;-67
2023/06/14 06:43:46;;;;;;;26.63;9.90;;;;;;;27.46;65.31;99268.56;5051094;28;20196;-67
2023/06/14 06:46:13;;;;;;;14.17;10.77;;;;;;;27.83;62.53;99283.72;5050690;28;20192;-68
2023/06/14 06:48:40;;;;;;;12.90;8.67;;;;;;;27.79;62.10;99271.78;5037019;28;20193;-69
2023/06/14 06:51:08;;;;;;;9.73;7.60;;;;;;;27.99;62.23;99271.28;5031114;28;20197;-68
2023/06/14 06:53:34;;;;;;;31.23;10.70;;;;;;;28.38;60.41;99274.00;5040809;28;20677;-67
2023/06/14 06:56:01;;;;;;;8.80;7.97;;;;;;;28.89;59.41;99283.13;5036792;28;20502;-69
2023/06/14 06:58:28;;;;;;;12.70;8.00;;;;;;;29.27;58.04;99279.78;5039491;28;20370;-69
2023/06/14 07:00:54;;;;;;;9.90;8.83;;;;;;;29.52;56.36;99287.94;5019574;28;20290;-72
2023/06/14 07:03:21;;;;;;;11.97;9.93;;;;;;;29.57;53.83;99290.56;5028890;28;20657;-69
2023/06/14 07:05:48;;;;;;;15.57;10.70;;;;;;;29.44;54.41;99290.69;5026469;28;20487;-69
2023/06/14 07:08:16;;;;;;;9.73;8.83;;;;;;;29.57;55.41;99289.72;5028461;28;20208;-68
2023/06/14 07:10:43;;;;;;;9.33;8.60;;;;;;;29.87;54.53;99286.75;5044118;28;20197;-68
2023/06/14 07:13:09;;;;;;;9.93;9.30;;;;;;;29.92;53.53;99292.06;5033623;28;20273;-69
2023/06/14 07:15:36;;;;;;;10.87;9.97;;;;;;;30.04;53.45;99286.69;5035323;28;20227;-69
2023/06/14 07:18:03;;;;;;;9.13;8.37;;;;;;;30.33;52.27;99275.00;5042385;28;20198;-69
2023/06/14 07:20:31;;;;;;;22.40;8.57;;;;;;;30.58;51.49;99272.09;5036802;28;20248;-69
2023/06/14 07:22:57;;;;;;;9.60;8.83;;;;;;;30.88;49.67;99273.72;5031749;28;20189;-72
2023/06/14 07:25:26;;;;;;;9.30;8.50;;;;;;;30.64;50.48;99276.28;5032596;28;20646;-68
2023/06/14 07:27:52;;;;;;;9.63;8.17;;;;;;;30.94;50.31;99269.63;5042932;28;20228;-68
2023/06/14 07:30:19;;;;;;;9.23;8.43;;;;;;;31.30;49.33;99267.09;5039662;28;20201;-67
2023/06/14 07:32:46;;;;;;;9.47;8.43;;;;;;;31.46;46.30;99279.06;5033623;28;20193;-68
2023/06/14 07:35:12;;;;;;;9.67;8.77;;;;;;;31.56;46.10;99272.34;5033100;28;20220;-73
2023/06/14 07:37:39;;;;;;;9.63;7.67;;;;;;;31.56;46.83;99264.88;5034791;28;20197;-71
2023/06/14 07:40:07;;;;;;;8.53;7.83;;;;;;;31.67;46.83;99270.75;5037865;28;20255;-68
2023/06/14 07:42:36;;;;;;;10.40;8.23;;;;;;;31.53;47.19;99264.75;5049573;28;20280;-66
2023/06/14 07:45:03;;;;;;;9.80;8.90;;;;;;;31.55;46.52;99266.03;5040426;28;20255;-68
2023/06/14 07:47:30;;;;;;;9.50;8.70;;;;;;;31.35;47.87;99263.34;5035672;28;20259;-67
2023/06/14 07:49:57;;;;;;;9.43;8.00;;;;;;;30.85;49.61;99255.16;5035162;28;20291;-67
2023/06/14 07:52:23;;;;;;;10.93;10.00;;;;;;;30.09;51.66;99253.63;5035974;28;20185;-67
2023/06/14 07:54:50;;;;;;;8.77;7.97;;;;;;;29.96;52.43;99246.44;5035165;28;20201;-67
2023/06/14 07:57:17;;;;;;;8.40;7.83;;;;;;;30.04;53.02;99242.84;5034828;28;20657;-67
2023/06/14 07:59:45;;;;;;;10.10;9.33;;;;;;;30.16;52.10;99240.25;5034888;28;20197;-71
2023/06/14 08:02:11;;;;;;;10.47;9.27;;;;;;;30.03;53.02;99243.19;5052258;28;20201;-70
2023/06/14 08:04:38;;;;;;;14.83;8.57;;;;;;;29.94;53.98;99247.91;5036756;28;20194;-71
2023/06/14 08:07:05;;;;;;;7.80;7.20;;;;;;;29.97;53.57;99248.03;5035093;28;20280;-70
2023/06/14 08:09:31;;;;;;;10.63;9.70;;;;;;;29.80;52.65;99258.28;5032504;28;20670;-71
2023/06/14 08:11:58;;;;;;;10.47;9.47;;;;;;;29.98;53.31;99263.38;5046196;28;20617;-71
2023/06/14 08:14:25;;;;;;;9.97;9.23;;;;;;;30.23;51.55;99257.00;5052846;28;20201;-72
2023/06/14 08:16:53;;;;;;;15.57;10.30;;;;;;;30.21;51.16;99262.00;5053743;28;20246;-70
2023/06/14 08:19:20;;;;;;;11.43;10.27;;;;;;;29.61;53.15;99263.31;5052492;28;20200;-69
2023/06/14 08:21:47;;;;;;;7.60;7.10;;;;;;;29.48;55.06;99267.03;5052384;28;20212;-69
2023/06/14 08:24:13;;;;;;;10.70;8.30;;;;;;;29.56;54.65;99267.00;5049902;28;20275;-70
2023/06/14 08:26:40;;;;;;;10.33;8.70;;;;;;;29.61;54.42;99264.13;5053537;28;20687;-72
2023/06/14 08:29:07;;;;;;;9.57;8.43;;;;;;;29.62;54.01;99263.00;5048012;28;20243;-68
2023/06/14 08:31:34;;;;;;;13.63;9.47;;;;;;;29.76;55.00;99268.28;5034771;28;20731;-68
2023/06/14 08:34:02;;;;;;;13.17;10.13;;;;;;;29.71;53.17;99273.91;5031754;28;20271;-69
2023/06/14 08:36:29;;;;;;;13.30;11.07;;;;;;;29.37;53.76;99277.50;5032765;28;20665;-68
2023/06/14 08:38:56;;;;;;;11.33;10.23;;;;;;;29.34;53.71;99275.41;5034889;28;20192;-69
2023/06/14 08:41:24;;;;;;;10.97;9.83;;;;;;;29.41;54.75;99281.22;5032280;28;20332;-70
2023/06/14 08:43:51;;;;;;;16.43;10.47;;;;;;;29.81;52.96;99279.06;5032086;28;20193;-68
2023/06/14 08:46:21;;;;;;;9.70;8.77;;;;;;;30.29;52.12;99285.81;5032104;28;20252;-71
2023/06/14 08:48:49;;;;;;;15.10;10.10;;;;;;;30.66;50.45;99279.47;5048425;28;20181;-70
2023/06/14 08:51:22;;;;;;;8.70;7.90;;;;;;;31.09;49.94;99303.88;5053232;28;20258;-67
2023/06/14 08:53:54;;;;;;;10.23;9.27;;;;;;;31.40;47.41;99294.13;5051980;28;20649;-67
2023/06/14 08:56:21;;;;;;;10.77;9.87;;;;;;;31.45;46.71;99288.44;5037944;28;20265;-66
2023/06/14 08:58:50;;;;;;;8.93;7.47;;;;;;;31.28;49.44;99285.81;5044518;28;20288;-66
2023/06/14 09:01:17;;;;;;;14.27;9.53;;;;;;;31.31;46.91;99292.63;5049112;28;20216;-66
2023/06/14 09:03:44;;;;;;;9.37;8.70;;;;;;;31.04;47.12;99290.38;5043967;28;20189;-65
2023/06/14 09:06:13;;;;;;;11.57;10.27;;;;;;;30.78;47.50;99287.81;5033667;28;20281;-66
2023/06/14 09:08:43;;;;;;;10.33;9.50;;;;;;;30.61;47.89;99281.59;5033787;28;20196;-65
2023/06/14 09:11:12;;;;;;;9.73;8.83;;;;;;;30.51;48.12;99282.00;5034835;28;20197;-67
2023/06/14 09:13:38;;;;;;;9.43;8.83;;;;;;;30.53;48.21;99274.25;5037396;28;20192;-68
2023/06/14 09:16:06;;;;;;;12.70;9.03;;;;;;;30.46;47.83;99274.75;5040674;28;20259;-74
2023/06/14 09:18:36;;;;;;;8.97;8.17;;;;;;;30.13;50.46;99268.28;5025295;28;20251;-71
2023/06/14 09:21:03;;;;;;;9.63;8.63;;;;;;;29.98;49.54;99271.59;5028807;28;20606;-73
2023/06/14 09:23:30;;;;;;;32.10;17.43;;;;;;;29.63;50.00;99264.59;5027160;28;20557;-71
2023/06/14 09:25:58;;;;;;;14.50;13.00;;;;;;;29.49;50.46;99271.38;5028707;28;20190;-69
2023/06/14 09:28:28;;;;;;;49.07;21.83;;;;;;;29.56;50.51;99258.00;5029910;28;20197;-68
2023/06/14 09:30:55;;;;;;;10.27;9.43;;;;;;;29.42;50.26;99260.91;5049679;28;20205;-67
2023/06/14 09:33:22;;;;;;;13.63;10.80;;;;;;;29.37;51.86;99257.53;5051744;28;20216;-69
2023/06/14 09:35:52;;;;;;;30.53;18.23;;;;;;;29.37;52.74;99258.34;5047170;28;20200;-69
2023/06/14 09:38:20;;;;;;;16.90;9.10;;;;;;;29.43;52.03;99256.25;5031257;28;20284;-70
2023/06/14 09:40:46;;;;;;;9.87;9.10;;;;;;;29.49;50.25;99255.75;5040814;28;20716;-68
2023/06/14 09:43:15;;;;;;;9.60;8.80;;;;;;;29.40;51.09;99254.16;5051048;28;20188;-69
2023/06/14 09:45:45;;;;;;;9.77;8.90;;;;;;;29.33;51.15;99249.19;5050330;28;20204;-70
2023/06/14 09:48:17;;;;;;;11.03;9.80;;;;;;;29.20;50.66;99252.91;5042590;28;20213;-69
2023/06/14 09:50:45;;;;;;;11.33;9.90;;;;;;;29.19;51.64;99249.34;5010414;28;20196;-70
2023/06/14 09:53:13;;;;;;;9.33;8.40;;;;;;;29.23;52.19;99246.75;5011627;28;20202;-70
2023/06/14 09:55:42;;;;;;;9.47;8.63;;;;;;;29.20;51.99;99247.44;5019446;28;20197;-71
2023/06/14 09:58:10;;;;;;;10.57;9.43;;;;;;;29.22;52.37;99250.63;5038230;28;20189;-70
2023/06/14 10:00:40;;;;;;;14.20;10.03;;;;;;;29.10;56.51;99234.06;5049160;28;20716;-69
2023/06/14 10:03:13;;;;;;;14.40;11.50;;;;;;;28.96;58.74;99236.16;5038862;28;20256;-70
2023/06/14 10:05:41;;;;;;;12.60;11.43;;;;;;;28.69;62.00;99234.53;5036322;28;20188;-69
2023/06/14 10:08:11;;;;;;;12.87;11.87;;;;;;;28.57;59.89;99239.81;5040544;28;20196;-70
2023/06/14 10:10:40;;;;;;;13.87;12.63;;;;;;;28.34;60.60;99237.50;5033325;28;20729;-68
2023/06/14 10:13:07;;;;;;;15.03;11.63;;;;;;;28.40;60.32;99233.47;5027146;28;20184;-67
2023/06/14 10:15:39;;;;;;;12.93;11.83;;;;;;;28.63;60.21;99230.31;5033087;28;20235;-68
2023/06/14 10:18:14;;;;;;;12.17;11.07;;;;;;;28.75;59.11;99235.97;5035049;28;20189;-68
2023/06/14 10:20:51;;;;;;;12.53;11.40;;;;;;;28.95;56.63;99234.53;5026086;28;20759;-68
2023/06/14 10:23:22;;;;;;;12.57;10.90;;;;;;;28.88;57.55;99228.75;5025279;28;20276;-67
2023/06/14 10:25:51;;;;;;;12.07;10.83;;;;;;;29.28;56.25;99227.47;5027205;28;20563;-67
2023/06/14 10:28:19;;;;;;;11.63;10.73;;;;;;;29.47;55.73;99227.88;5028946;28;20577;-67
2023/06/14 10:31:14;;;;;;;16.60;9.83;;;;;;;29.12;54.40;99229.09;5013439;28;20264;-67
2023/06/14 10:33:50;;;;;;;12.03;9.87;;;;;;;29.24;53.90;99226.50;5022221;28;20623;-67
2023/06/14 10:36:28;;;;;;;12.80;11.47;;;;;;;29.29;52.75;99218.13;5012560;28;20185;-67
2023/06/14 10:38:59;;;;;;;13.40;11.03;;;;;;;29.56;52.74;99228.66;5012366;28;20283;-68
2023/06/14 10:41:28;;;;;;;10.63;9.93;;;;;;;29.59;53.18;99222.56;5012115;28;20301;-67
2023/06/14 10:44:27;;;;;;;14.87;11.27;;;;;;;29.43;53.86;99231.63;5012198;28;20284;-67
2023/06/14 10:46:56;;;;;;;15.13;10.70;;;;;;;29.63;53.48;99226.25;5002273;28;20252;-67
2023/06/14 10:49:40;;;;;;;13.27;10.07;;;;;;;29.68;55.69;99217.06;5012022;28;20252;-67
2023/06/14 10:52:11;;;;;;;11.37;10.57;;;;;;;29.49;54.87;99217.44;5012257;28;20190;-67
2023/06/14 10:54:38;;;;;;;12.30;10.30;;;;;;;29.45;54.43;99221.13;5012659;28;20197;-67
2023/06/14 10:57:08;;;;;;;11.27;10.47;;;;;;;29.64;54.33;99218.88;5031373;28;20189;-67
2023/06/14 10:59:35;;;;;;;12.43;9.50;;;;;;;29.55;54.35;99213.38;5031874;28;20197;-67
2023/06/14 11:02:23;;;;;;;9.83;9.03;;;;;;;29.49;54.16;99205.66;5031713;28;20298;-67
2023/06/14 11:04:52;;;;;;;9.53;8.77;;;;;;;29.57;53.32;99208.41;5031502;28;20185;-67
2023/06/14 11:07:44;;;;;;;9.07;8.23;;;;;;;29.45;50.86;99208.25;5031784;28;20193;-67
2023/06/14 11:10:25;;;;;;;9.90;9.30;;;;;;;29.58;51.65;99207.28;5031966;28;20185;-67
2023/06/14 11:12:55;;;;;;;15.53;9.17;;;;;;;29.50;52.13;99213.56;5031894;28;20190;-67
2023/06/14 11:15:28;;;;;;;8.80;8.30;;;;;;;29.47;51.93;99199.72;5031917;28;20197;-67
2023/06/14 11:17:57;;;;;;;9.97;8.90;;;;;;;29.55;53.19;99213.38;5031496;28;20185;-67
2023/06/14 11:20:27;;;;;;;9.63;9.03;;;;;;;29.94;51.18;99207.63;5031996;28;20223;-68
2023/06/14 11:22:54;;;;;;;9.50;9.00;;;;;;;29.85;50.25;99204.13;5031289;28;20221;-67
2023/06/14 11:25:21;;;;;;;9.60;8.87;;;;;;;29.78;50.72;99205.75;5033761;28;20189;-68
2023/06/14 11:27:50;;;;;;;9.83;8.90;;;;;;;29.64;50.76;99203.22;5038846;28;20800;-66
2023/06/14 11:30:17;;;;;;;10.53;9.73;;;;;;;29.59;50.82;99192.44;5034578;28;20190;-67
2023/06/14 11:32:47;;;;;;;10.77;9.57;;;;;;;29.90;50.55;99198.47;5031219;28;20227;-68